createdAt,value
2023-04-11T00:00:22.182Z,100524.48
2023-04-11T00:02:48.900Z,100520.35
2023-04-11T00:05:15.973Z,100520.38
2023-04-11T00:07:42.601Z,100512.70
2023-04-11T00:10:09.600Z,100508.55
2023-04-11T00:12:36.178Z,100503.21
2023-04-11T00:15:03.723Z,100499.48
2023-04-11T00:17:31.817Z,100498.90
2023-04-11T00:20:01.811Z,100494.93
2023-04-11T00:22:28.363Z,100492.52
2023-04-11T00:24:55.125Z,100488.05
2023-04-11T00:27:22.120Z,100487.94
2023-04-11T00:29:48.725Z,100484.98
2023-04-11T00:32:15.470Z,100481.87
2023-04-11T00:34:42.343Z,100477.11
2023-04-11T00:37:08.845Z,100477.13
2023-04-11T00:39:35.387Z,100478.15
2023-04-11T00:42:07.684Z,100474.56
2023-04-11T00:44:36.272Z,100472.27
2023-04-11T00:47:06.568Z,100473.04
2023-04-11T00:49:33.733Z,100472.65
2023-04-11T00:52:00.789Z,100471.50
2023-04-11T00:54:30.108Z,100469.11
2023-04-11T00:56:59.696Z,100464.90
2023-04-11T00:59:28.089Z,100464.05
2023-04-11T01:01:55.631Z,100458.02
2023-04-11T01:04:22.843Z,100454.52
2023-04-11T01:06:53.003Z,100454.50
2023-04-11T01:09:21.457Z,100453.40
2023-04-11T01:11:49.788Z,100452.66
2023-04-11T01:14:18.485Z,100453.09
2023-04-11T01:16:50.747Z,100450.52
2023-04-11T01:19:23.548Z,100447.71
2023-04-11T01:21:52.049Z,100444.98
2023-04-11T01:24:19.000Z,100442.03
2023-04-11T01:26:45.976Z,100439.30
2023-04-11T01:29:14.572Z,100437.73
2023-04-11T01:31:41.204Z,100434.41
2023-04-11T01:34:07.936Z,100429.29
2023-04-11T01:36:34.728Z,100426.02
2023-04-11T01:39:01.493Z,100424.98
2023-04-11T01:41:30.424Z,100422.54
2023-04-11T01:43:59.270Z,100423.38
2023-04-11T01:46:26.093Z,100420.65
2023-04-11T01:48:55.412Z,100414.47
2023-04-11T01:51:22.221Z,100413.27
2023-04-11T01:53:48.754Z,100416.94
2023-04-11T01:56:15.539Z,100415.46
2023-04-11T01:58:42.170Z,100412.27
2023-04-11T02:01:09.188Z,100415.96
2023-04-11T02:03:37.017Z,100413.29
2023-04-11T02:06:04.069Z,100408.42
2023-04-11T02:08:30.954Z,100405.61
2023-04-11T02:10:57.452Z,100404.32
2023-04-11T02:13:23.985Z,100397.92
2023-04-11T02:19:03.737Z,100393.92
2023-04-11T02:21:30.330Z,100393.70
2023-04-11T02:23:58.428Z,100394.47
2023-04-11T02:26:26.796Z,100395.42
2023-04-11T02:28:55.965Z,100388.40
2023-04-11T02:31:22.885Z,100385.50
2023-04-11T02:33:49.455Z,100386.40
2023-04-11T02:36:18.671Z,100385.55
2023-04-11T02:38:45.360Z,100382.35
2023-04-11T02:41:11.921Z,100383.23
2023-04-11T02:43:38.749Z,100378.52
2023-04-11T02:46:12.525Z,100375.11
2023-04-11T02:48:42.007Z,100376.25
2023-04-11T02:51:09.237Z,100372.99
2023-04-11T02:53:35.834Z,100371.90
2023-04-11T02:56:02.473Z,100373.02
2023-04-11T02:58:29.190Z,100371.58
2023-04-11T03:00:57.161Z,100368.88
2023-04-11T03:03:23.936Z,100367.85
2023-04-11T03:05:50.739Z,100370.95
2023-04-11T03:08:22.041Z,100373.05
2023-04-11T03:10:51.282Z,100370.71
2023-04-11T03:13:18.671Z,100365.08
2023-04-11T03:15:45.301Z,100364.62
2023-04-11T03:18:12.394Z,100362.13
2023-04-11T03:20:41.440Z,100361.67
2023-04-11T03:23:08.691Z,100361.19
2023-04-11T03:25:37.773Z,100357.30
2023-04-11T03:28:05.518Z,100359.52
2023-04-11T03:30:33.386Z,100353.14
2023-04-11T03:33:00.935Z,100347.77
2023-04-11T03:35:28.068Z,100345.45
2023-04-11T03:37:54.661Z,100341.77
2023-04-11T03:40:21.397Z,100339.75
2023-04-11T03:42:52.067Z,100337.98
2023-04-11T03:45:21.485Z,100337.54
2023-04-11T03:47:48.465Z,100335.80
2023-04-11T03:50:15.596Z,100336.91
2023-04-11T03:52:44.624Z,100333.33
2023-04-11T03:55:13.197Z,100332.19
2023-04-11T03:57:39.787Z,100326.70
2023-04-11T04:00:07.648Z,100325.99
2023-04-11T04:02:42.179Z,100327.08
2023-04-11T04:05:11.115Z,100330.98
2023-04-11T04:07:39.544Z,100331.13
2023-04-11T04:10:14.470Z,100335.05
2023-04-11T04:12:41.729Z,100335.09
2023-04-11T04:15:14.602Z,100340.11
2023-04-11T04:17:42.193Z,100339.99
2023-04-11T04:20:12.374Z,100339.27
2023-04-11T04:22:39.707Z,100339.27
2023-04-11T04:25:06.994Z,100340.70
2023-04-11T04:27:34.966Z,100338.73
2023-04-11T04:30:04.474Z,100336.81
2023-04-11T04:33:12.430Z,100327.63
2023-04-11T04:35:42.211Z,100326.25
2023-04-11T04:38:08.980Z,100325.86
2023-04-11T04:40:50.422Z,100323.00
2023-04-11T04:43:22.599Z,100329.27
2023-04-11T04:46:15.501Z,100328.41
2023-04-11T04:48:48.777Z,100330.00
2023-04-11T04:51:15.448Z,100334.80
2023-04-11T04:53:42.167Z,100335.28
2023-04-11T04:56:09.811Z,100334.56
2023-04-11T04:58:41.225Z,100332.52
2023-04-11T05:01:11.447Z,100327.88
2023-04-11T05:03:39.019Z,100327.09
2023-04-11T05:06:09.668Z,100323.95
2023-04-11T05:08:36.715Z,100325.67
2023-04-11T05:11:05.435Z,100324.06
2023-04-11T05:13:34.320Z,100318.83
2023-04-11T05:16:02.411Z,100312.83
2023-04-11T05:18:30.615Z,100311.08
2023-04-11T05:21:04.873Z,100308.85
2023-04-11T05:23:38.186Z,100305.61
2023-04-11T05:26:08.974Z,100306.25
2023-04-11T05:28:36.171Z,100303.02
2023-04-11T05:31:07.049Z,100302.90
2023-04-11T05:33:34.269Z,100300.90
2023-04-11T05:36:01.272Z,100299.41
2023-04-11T05:38:27.899Z,100297.95
2023-04-11T05:40:54.431Z,100293.34
2023-04-11T05:43:21.314Z,100290.15
2023-04-11T05:45:48.190Z,100290.17
2023-04-11T05:48:19.584Z,100290.30
2023-04-11T05:50:47.623Z,100284.73
2023-04-11T05:53:14.184Z,100282.34
2023-04-11T05:55:40.902Z,100282.77
2023-04-11T05:58:09.299Z,100276.78
2023-04-11T06:00:38.420Z,100268.02
2023-04-11T06:03:07.974Z,100267.30
2023-04-11T06:05:35.362Z,100261.88
2023-04-11T06:08:04.271Z,100259.67
2023-04-11T06:10:31.258Z,100254.73
2023-04-11T06:12:58.225Z,100252.48
2023-04-11T06:15:29.097Z,100245.41
2023-04-11T06:17:56.066Z,100247.17
2023-04-11T06:20:25.193Z,100248.73
2023-04-11T06:22:52.138Z,100252.41
2023-04-11T06:25:20.394Z,100254.02
2023-04-11T06:27:48.060Z,100250.13
2023-04-11T06:30:15.464Z,100249.27
2023-04-11T06:32:42.367Z,100245.87
2023-04-11T06:35:10.041Z,100246.06
2023-04-11T06:37:36.823Z,100242.45
2023-04-11T06:40:05.765Z,100239.87
2023-04-11T06:42:32.627Z,100237.17
2023-04-11T06:44:59.258Z,100235.46
2023-04-11T06:47:26.020Z,100228.55
2023-04-11T06:49:52.568Z,100227.41
2023-04-11T06:52:19.135Z,100226.43
2023-04-11T06:54:47.829Z,100222.98
2023-04-11T06:57:14.482Z,100223.06
2023-04-11T06:59:41.276Z,100225.08
2023-04-11T07:02:08.239Z,100227.04
2023-04-11T07:04:35.063Z,100224.32
2023-04-11T07:07:01.891Z,100217.95
2023-04-11T07:09:28.568Z,100214.47
2023-04-11T07:11:55.157Z,100209.63
2023-04-11T07:14:21.727Z,100204.67
2023-04-11T07:16:48.276Z,100202.27
2023-04-11T07:19:14.941Z,100201.77
2023-04-11T07:21:42.024Z,100198.31
2023-04-11T07:24:10.574Z,100197.92
2023-04-11T07:26:38.589Z,100193.06
2023-04-11T07:29:05.765Z,100190.84
2023-04-11T07:31:33.232Z,100187.71
2023-04-11T07:33:59.832Z,100183.59
2023-04-11T07:36:26.744Z,100178.60
2023-04-11T07:38:53.410Z,100170.94
2023-04-11T07:41:20.069Z,100171.25
2023-04-11T07:43:47.269Z,100160.87
2023-04-11T07:46:15.118Z,100163.01
2023-04-11T07:48:42.621Z,100163.06
2023-04-11T07:51:09.480Z,100158.21
2023-04-11T07:53:36.356Z,100149.09
2023-04-11T07:56:03.181Z,100148.91
2023-04-11T07:58:30.234Z,100145.89
2023-04-11T08:00:56.885Z,100147.34
2023-04-11T08:03:24.038Z,100146.15
2023-04-11T08:05:52.247Z,100140.25
2023-04-11T08:08:19.017Z,100134.48
2023-04-11T08:10:45.794Z,100135.48
2023-04-11T08:13:12.439Z,100129.67
2023-04-11T08:15:39.261Z,100127.65
2023-04-11T08:18:05.952Z,100125.34
2023-04-11T08:20:32.737Z,100120.08
2023-04-11T08:23:00.678Z,100115.19
2023-04-11T08:25:27.562Z,100117.25
2023-04-11T08:27:54.497Z,100116.51
2023-04-11T08:30:21.661Z,100110.63
2023-04-11T08:32:48.384Z,100107.80
2023-04-11T08:35:15.364Z,100106.67
2023-04-11T08:37:44.370Z,100108.77
2023-04-11T08:40:11.652Z,100111.55
2023-04-11T08:42:38.350Z,100105.70
2023-04-11T08:45:08.794Z,100094.23
2023-04-11T08:47:37.135Z,100090.39
2023-04-11T08:50:06.592Z,100085.09
2023-04-11T08:52:34.180Z,100085.02
2023-04-11T08:55:02.124Z,100088.92
2023-04-11T08:57:35.141Z,100091.33
2023-04-11T09:00:19.285Z,100087.46
2023-04-11T09:03:02.841Z,100079.11
2023-04-11T09:05:35.034Z,100075.09
2023-04-11T09:08:08.299Z,100070.42
2023-04-11T09:10:36.345Z,100064.65
2023-04-11T09:13:18.322Z,100058.80
2023-04-11T09:15:45.217Z,100060.85
2023-04-11T09:18:31.919Z,100054.84
2023-04-11T09:21:04.416Z,100044.48
2023-04-11T09:23:31.203Z,100049.19
2023-04-11T09:25:58.443Z,100040.46
2023-04-11T09:28:25.951Z,100035.70
2023-04-11T09:30:54.494Z,100029.02
2023-04-11T09:33:28.355Z,100025.29
2023-04-11T09:35:56.770Z,100019.69
2023-04-11T09:38:32.156Z,100021.23
2023-04-11T09:41:00.662Z,100017.04
2023-04-11T09:43:53.091Z,100018.29
2023-04-11T09:46:21.421Z,100013.27
2023-04-11T09:48:49.536Z,100010.61
2023-04-11T09:51:31.889Z,100004.92
2023-04-11T09:54:02.082Z,99997.25
2023-04-11T09:56:30.581Z,99990.35
2023-04-11T09:58:59.905Z,99983.77
2023-04-11T10:01:27.412Z,99979.52
2023-04-11T10:03:56.679Z,99972.78
2023-04-11T10:06:41.362Z,99968.57
2023-04-11T10:09:11.102Z,99961.60
2023-04-11T10:11:42.361Z,99952.48
2023-04-11T10:14:09.453Z,99945.84
2023-04-11T10:16:37.445Z,99941.85
2023-04-11T10:19:04.665Z,99939.17
2023-04-11T10:21:36.541Z,99941.34
2023-04-11T10:24:15.888Z,99927.34
2023-04-11T10:26:51.704Z,99924.34
2023-04-11T10:29:34.528Z,99928.30
2023-04-11T10:32:17.334Z,99928.88
2023-04-11T10:34:49.921Z,99924.40
2023-04-11T10:37:34.704Z,99924.59
2023-04-11T10:40:11.660Z,99922.92
2023-04-11T10:42:41.030Z,99912.83
2023-04-11T10:45:27.900Z,99911.64
2023-04-11T10:48:05.930Z,99909.62
2023-04-11T10:50:37.765Z,99910.01
2023-04-11T10:53:09.433Z,99904.71
2023-04-11T10:55:44.611Z,99895.75
2023-04-11T10:58:22.436Z,99897.52
2023-04-11T11:00:52.737Z,99894.36
2023-04-11T11:03:19.682Z,99901.69
2023-04-11T11:05:47.696Z,99891.58
2023-04-11T11:08:14.500Z,99893.48
2023-04-11T11:10:44.776Z,99890.27
2023-04-11T11:13:22.053Z,99889.42
2023-04-11T11:15:50.297Z,99877.64
2023-04-11T11:18:18.445Z,99875.98
2023-04-11T11:20:45.192Z,99885.20
2023-04-11T11:23:14.710Z,99885.76
2023-04-11T11:25:53.039Z,99887.28
2023-04-11T11:28:19.677Z,99883.35
2023-04-11T11:30:54.029Z,99882.48
2023-04-11T11:33:26.900Z,99869.35
2023-04-11T11:36:06.792Z,99872.15
2023-04-11T11:38:33.654Z,99872.92
2023-04-11T11:41:01.003Z,99866.61
2023-04-11T11:43:35.178Z,99867.67
2023-04-11T11:46:16.006Z,99870.22
2023-04-11T11:48:57.133Z,99866.70
2023-04-11T11:51:24.522Z,99861.16
2023-04-11T11:54:08.763Z,99857.52
2023-04-11T11:56:39.762Z,99854.70
2023-04-11T11:59:07.616Z,99862.83
2023-04-11T12:01:35.749Z,99863.59
2023-04-11T12:04:04.580Z,99861.14
2023-04-11T12:06:32.514Z,99856.33
2023-04-11T12:09:09.599Z,99843.36
2023-04-11T12:11:41.183Z,99838.22
2023-04-11T12:14:08.795Z,99843.35
2023-04-11T12:16:40.559Z,99840.73
2023-04-11T12:19:08.684Z,99833.36
2023-04-11T12:21:35.235Z,99832.29
2023-04-11T12:24:01.855Z,99829.21
2023-04-11T12:26:28.717Z,99825.94
2023-04-11T12:28:55.550Z,99823.63
2023-04-11T12:31:25.303Z,99817.29
2023-04-11T12:33:52.280Z,99813.88
2023-04-11T12:36:18.973Z,99815.66
2023-04-11T12:38:45.658Z,99818.66
2023-04-11T12:44:04.179Z,99809.70
2023-04-11T12:44:22.842Z,99813.06
2023-04-11T12:46:30.839Z,99812.84
2023-04-11T12:48:58.016Z,99820.00
2023-04-11T12:51:24.924Z,99817.23
2023-04-11T12:53:52.839Z,99809.31
2023-04-11T12:56:19.449Z,99806.38
2023-04-11T12:58:46.398Z,99803.94
2023-04-11T13:01:12.998Z,99808.63
2023-04-11T13:03:39.711Z,99796.95
2023-04-11T13:06:07.057Z,99795.45
2023-04-11T13:08:33.638Z,99790.80
2023-04-11T13:11:00.486Z,99790.45
2023-04-11T13:13:27.125Z,99785.48
2023-04-11T13:15:54.991Z,99782.38
2023-04-11T13:18:21.911Z,99784.02
2023-04-11T13:20:48.788Z,99781.00
2023-04-11T13:23:17.204Z,99779.27
2023-04-11T13:25:44.099Z,99774.48
2023-04-11T13:28:10.685Z,99771.64
2023-04-11T13:30:37.339Z,99766.05
2023-04-11T13:33:04.186Z,99766.00
2023-04-11T13:35:31.013Z,99762.41
2023-04-11T13:37:57.806Z,99755.86
2023-04-11T13:40:24.427Z,99754.27
2023-04-11T13:42:52.202Z,99750.00
2023-04-11T13:45:18.865Z,99750.02
2023-04-11T13:47:45.760Z,99744.47
2023-04-11T13:50:12.493Z,99742.26
2023-04-11T13:52:39.738Z,99737.64
2023-04-11T13:55:07.116Z,99739.27
2023-04-11T13:57:33.692Z,99734.52
2023-04-11T14:00:00.313Z,99732.84
2023-04-11T14:02:27.066Z,99723.10
2023-04-11T14:04:53.780Z,99722.06
2023-04-11T14:07:20.457Z,99718.27
2023-04-11T14:09:46.989Z,99713.30
2023-04-11T14:12:13.613Z,99709.79
2023-04-11T14:14:40.339Z,99711.32
2023-04-11T14:17:07.068Z,99703.19
2023-04-11T14:19:33.941Z,99703.73
2023-04-11T14:22:00.713Z,99701.82
2023-04-11T14:24:27.572Z,99701.46
2023-04-11T14:26:54.260Z,99700.34
2023-04-11T14:29:22.397Z,99691.10
2023-04-11T14:31:50.213Z,99685.97
2023-04-11T14:34:18.602Z,99687.11
2023-04-11T14:36:45.614Z,99685.31
2023-04-11T14:39:12.648Z,99680.66
2023-04-11T14:41:39.513Z,99675.05
2023-04-11T14:44:06.529Z,99679.39
2023-04-11T14:46:34.954Z,99670.95
2023-04-11T14:49:02.159Z,99668.30
2023-04-11T14:51:29.849Z,99668.13
2023-04-11T14:53:57.220Z,99663.59
2023-04-11T14:56:24.940Z,99668.30
2023-04-11T14:58:51.788Z,99660.45
2023-04-11T15:01:20.128Z,99660.27
2023-04-11T15:03:47.136Z,99664.05
2023-04-11T15:06:14.049Z,99664.95
2023-04-11T15:08:41.335Z,99665.60
2023-04-11T15:11:08.343Z,99662.50
2023-04-11T15:13:35.140Z,99656.26
2023-04-11T15:16:05.716Z,99653.98
2023-04-11T15:18:32.934Z,99651.84
2023-04-11T15:21:00.658Z,99646.47
2023-04-11T15:23:27.302Z,99649.70
2023-04-11T15:25:59.481Z,99641.85
2023-04-11T15:28:30.393Z,99641.08
2023-04-11T15:30:57.411Z,99634.91
2023-04-11T15:33:24.192Z,99633.30
2023-04-11T15:35:53.834Z,99632.66
2023-04-11T15:38:21.074Z,99628.96
2023-04-11T15:40:51.893Z,99623.60
2023-04-11T15:43:18.664Z,99619.25
2023-04-11T15:45:45.288Z,99616.10
2023-04-11T15:48:13.477Z,99608.63
2023-04-11T15:50:43.964Z,99605.22
2023-04-11T15:53:11.569Z,99605.28
2023-04-11T15:55:40.776Z,99603.60
2023-04-11T15:58:07.617Z,99603.50
2023-04-11T16:00:39.326Z,99601.90
2023-04-11T16:03:08.589Z,99602.14
2023-04-11T16:05:38.327Z,99599.65
2023-04-11T16:08:06.978Z,99597.49
2023-04-11T16:10:33.918Z,99598.88
2023-04-11T16:13:01.775Z,99598.67
2023-04-11T16:15:28.414Z,99596.18
2023-04-11T16:17:55.023Z,99589.89
2023-04-11T16:20:22.911Z,99590.98
2023-04-11T16:22:49.678Z,99594.35
2023-04-11T16:25:19.448Z,99593.89
2023-04-11T16:27:46.762Z,99590.83
2023-04-11T16:30:13.937Z,99591.78
2023-04-11T16:32:40.912Z,99592.27
2023-04-11T16:35:08.369Z,99590.32
2023-04-11T16:37:35.660Z,99591.59
2023-04-11T16:40:02.722Z,99594.66
2023-04-11T16:42:30.058Z,99594.05
2023-04-11T16:44:56.655Z,99589.02
2023-04-11T16:47:26.298Z,99588.95
2023-04-11T16:49:53.606Z,99584.71
2023-04-11T16:52:21.584Z,99583.06
2023-04-11T16:54:48.356Z,99580.54
2023-04-11T16:57:14.937Z,99579.20
2023-04-11T16:59:41.912Z,99579.65
2023-04-11T17:02:08.643Z,99573.77
2023-04-11T17:04:35.566Z,99575.47
2023-04-11T17:07:02.309Z,99575.74
2023-04-11T17:09:29.569Z,99577.60
2023-04-11T17:11:56.625Z,99576.95
2023-04-11T17:14:24.550Z,99575.73
2023-04-11T17:16:51.639Z,99572.63
2023-04-11T17:19:18.287Z,99574.10
2023-04-11T17:21:45.084Z,99577.90
2023-04-11T17:24:11.654Z,99576.22
2023-04-11T17:26:38.682Z,99574.39
2023-04-11T17:29:06.525Z,99574.80
2023-04-11T17:31:34.048Z,99575.52
2023-04-11T17:34:00.720Z,99571.71
2023-04-11T17:36:28.433Z,99572.36
2023-04-11T17:38:55.121Z,99571.45
2023-04-11T17:41:22.062Z,99574.52
2023-04-11T17:43:48.572Z,99574.39
2023-04-11T17:46:15.557Z,99578.34
2023-04-11T17:48:42.431Z,99577.96
2023-04-11T17:51:09.068Z,99578.11
2023-04-11T17:53:36.066Z,99578.92
2023-04-11T17:56:04.776Z,99581.86
2023-04-11T17:58:31.886Z,99578.36
2023-04-11T18:00:58.696Z,99581.60
2023-04-11T18:03:26.243Z,99580.00
2023-04-11T18:05:54.556Z,99579.00
2023-04-11T18:08:36.188Z,99579.91
2023-04-11T18:11:11.321Z,99578.80
2023-04-11T18:13:37.967Z,99582.79
2023-04-11T18:16:05.203Z,99586.25
2023-04-11T18:18:31.952Z,99583.10
2023-04-11T18:21:05.065Z,99585.67
2023-04-11T18:23:33.879Z,99584.27
2023-04-11T18:26:00.582Z,99584.52
2023-04-11T18:28:27.243Z,99585.56
2023-04-11T18:30:54.852Z,99591.24
2023-04-11T18:33:21.723Z,99591.70
2023-04-11T18:35:48.424Z,99587.14
2023-04-11T18:38:17.337Z,99587.88
2023-04-11T18:40:43.944Z,99590.52
2023-04-11T18:43:10.706Z,99588.85
2023-04-11T18:45:38.992Z,99589.42
2023-04-11T18:48:06.461Z,99589.05
2023-04-11T18:50:38.939Z,99590.33
2023-04-11T18:53:11.875Z,99585.58
2023-04-11T18:55:40.901Z,99584.60
2023-04-11T18:58:09.519Z,99582.64
2023-04-11T19:00:39.033Z,99582.55
2023-04-11T19:03:07.172Z,99578.63
2023-04-11T19:05:34.471Z,99581.09
2023-04-11T19:08:01.626Z,99580.73
2023-04-11T19:10:28.481Z,99575.76
2023-04-11T19:12:55.427Z,99577.10
2023-04-11T19:15:22.651Z,99578.63
2023-04-11T19:17:49.623Z,99577.83
2023-04-11T19:20:16.745Z,99573.25
2023-04-11T19:22:43.579Z,99572.75
2023-04-11T19:25:11.650Z,99568.54
2023-04-11T19:27:41.306Z,99568.38
2023-04-11T19:30:10.335Z,99566.80
2023-04-11T19:32:43.438Z,99570.21
2023-04-11T19:35:11.812Z,99571.52
2023-04-11T19:37:39.748Z,99564.70
2023-04-11T19:40:13.602Z,99568.56
2023-04-11T19:42:42.158Z,99572.36
2023-04-11T19:45:10.513Z,99571.21
2023-04-11T19:47:39.164Z,99568.81
2023-04-11T19:50:13.557Z,99566.09
2023-04-11T19:52:41.580Z,99564.77
2023-04-11T19:55:09.452Z,99565.23
2023-04-11T19:57:38.753Z,99564.53
2023-04-11T20:00:13.790Z,99566.20
2023-04-11T20:02:44.996Z,99570.19
2023-04-11T20:05:13.786Z,99571.87
2023-04-11T20:07:40.524Z,99573.02
2023-04-11T20:10:08.291Z,99574.11
2023-04-11T20:12:35.032Z,99578.58
2023-04-11T20:15:02.438Z,99580.09
2023-04-11T20:17:29.859Z,99578.63
2023-04-11T20:19:56.838Z,99577.98
2023-04-11T20:22:25.863Z,99577.34
2023-04-11T20:24:52.777Z,99576.89
2023-04-11T20:27:19.663Z,99573.24
2023-04-11T20:29:47.339Z,99567.67
2023-04-11T20:32:14.281Z,99569.65
2023-04-11T20:34:41.463Z,99566.88
2023-04-11T20:37:09.104Z,99571.89
2023-04-11T20:39:36.568Z,99571.88
2023-04-11T20:42:03.584Z,99568.45
2023-04-11T20:44:30.511Z,99568.95
2023-04-11T20:46:57.182Z,99572.30
2023-04-11T20:49:28.284Z,99571.11
2023-04-11T20:51:55.236Z,99574.15
2023-04-11T20:54:22.593Z,99574.94
2023-04-11T20:56:49.420Z,99574.39
2023-04-11T20:59:16.250Z,99568.63
2023-04-11T21:01:44.100Z,99568.59
2023-04-11T21:04:11.646Z,99568.92
2023-04-11T21:06:38.605Z,99567.77
2023-04-11T21:09:05.979Z,99564.63
2023-04-11T21:11:32.860Z,99564.52
2023-04-11T21:13:59.634Z,99562.61
2023-04-11T21:16:26.620Z,99562.58
2023-04-11T21:18:53.289Z,99560.61
2023-04-11T21:21:20.765Z,99561.79
2023-04-11T21:23:47.643Z,99564.27
2023-04-11T21:26:14.445Z,99564.42
2023-04-11T21:28:41.202Z,99567.08
2023-04-11T21:31:07.902Z,99562.55
2023-04-11T21:33:35.047Z,99562.84
2023-04-11T21:36:01.873Z,99563.45
2023-04-11T21:38:28.936Z,99561.52
2023-04-11T21:40:57.983Z,99560.23
2023-04-11T21:43:25.150Z,99558.89
2023-04-11T21:45:52.767Z,99556.59
2023-04-11T21:48:19.847Z,99556.44
2023-04-11T21:50:46.677Z,99550.27
2023-04-11T21:53:14.183Z,99550.23
2023-04-11T21:55:46.297Z,99548.81
2023-04-11T21:58:26.313Z,99546.12
2023-04-11T22:00:56.069Z,99538.66
2023-04-11T22:03:23.654Z,99539.87
2023-04-11T22:05:52.395Z,99540.35
2023-04-11T22:08:22.250Z,99534.75
2023-04-11T22:10:50.732Z,99530.10
2023-04-11T22:13:19.925Z,99531.02
2023-04-11T22:15:48.913Z,99530.90
2023-04-11T22:18:15.868Z,99529.83
2023-04-11T22:20:44.069Z,99528.73
2023-04-11T22:23:13.525Z,99525.58
2023-04-11T22:25:44.210Z,99524.41
2023-04-11T22:28:15.645Z,99525.10
2023-04-11T22:30:44.078Z,99522.13
2023-04-11T22:33:13.735Z,99524.28
2023-04-11T22:35:40.833Z,99521.38
2023-04-11T22:38:07.513Z,99524.40
2023-04-11T22:40:34.934Z,99524.46
2023-04-11T22:43:02.843Z,99522.97
2023-04-11T22:45:29.360Z,99523.73
2023-04-11T22:47:59.975Z,99521.36
2023-04-11T22:50:26.739Z,99519.20
2023-04-11T22:52:54.805Z,99517.14
2023-04-11T22:55:24.802Z,99516.13
2023-04-11T22:57:51.543Z,99522.55
2023-04-11T23:00:18.951Z,99520.22
2023-04-11T23:02:45.625Z,99512.17
2023-04-11T23:05:12.182Z,99513.45
2023-04-11T23:07:38.824Z,99513.84
2023-04-11T23:10:10.526Z,99512.70
2023-04-11T23:12:37.130Z,99515.53
2023-04-11T23:15:04.284Z,99513.65
2023-04-11T23:17:30.826Z,99510.80
2023-04-11T23:19:59.687Z,99507.38
2023-04-11T23:22:26.599Z,99503.75
2023-04-11T23:24:53.862Z,99504.14
2023-04-11T23:27:20.980Z,99504.06
2023-04-11T23:30:51.900Z,99500.45
2023-04-11T23:33:25.771Z,99500.42
2023-04-11T23:35:53.200Z,99502.67
2023-04-11T23:38:19.823Z,99499.77
2023-04-11T23:40:46.344Z,99497.98
2023-04-11T23:43:12.880Z,99501.64
2023-04-11T23:45:39.434Z,99509.95
2023-04-11T23:48:06.920Z,99516.19
2023-04-11T23:50:33.528Z,99518.04
2023-04-11T23:53:00.517Z,99517.77
2023-04-11T23:55:27.116Z,99515.36
2023-04-11T23:57:54.148Z,99515.48
